Cortez, Colorado
Current Conditions -  °F | °C
As of 2:53 PM on Sunday 23 Nov 2014 (Local Time) from KCEZ Reporting Station
Broken Clouds Broken Clouds  
Wind Chill: 30°   Ceiling: 7500
Heat Index: 41°   Visibility: 10mi
Dew Point: 12°   Wind: 26mph
Humidity: 31%   Direction: 330°NNW
Pressure: 29.98"   Gusts: 36mph
Location:  37.35°N, 108.55°W
Report Text: KCEZ 232153Z AUTO 33023G31KT 10SM BKN075 05/M11 A2998 RMK AO2 PK WND 34031/2152 SLP133 T00501111
Loading
Personal Weather Stations






























Interactive Weather Map New forecast layout! Learn more

10-Day Weather Forecast

Advertisements
Track Severe Weather on mobile